Time;durP1;ratioP1;P1;durP2;ratioP2;P2;SDS_P1;SDS_P2;PMS_P1;PMS_P2;Temp;Humidity;BMP_temperature;BMP_pressure;BME280_temperature;BME280_humidity;BME280_pressure;Samples;Min_cycle;Max_cycle;Signal;HPM_P1;HPM_P2
2023/03/12 00:00:55;;;;;;;3.27;3.07;;;;;;;;;;6188284;28;20302;-73
2023/03/12 00:04:02;;;;;;;4.93;3.03;;;;;;;;;;6187844;28;20316;-74
2023/03/12 00:07:09;;;;;;;3.90;2.53;;;;;;;;;;6188363;28;20586;-73
2023/03/12 00:10:14;;;;;;;3.63;2.90;;;;;;;;;;6188437;28;20304;-74
2023/03/12 00:13:20;;;;;;;3.00;2.80;;;;;;;;;;6187710;28;20303;-75
2023/03/12 00:16:25;;;;;;;3.00;2.90;;;;;;;;;;6187612;28;20295;-73
2023/03/12 00:19:30;;;;;;;3.37;3.10;;;;;;;;;;6186842;28;20628;-73
2023/03/12 00:22:37;;;;;;;4.13;3.83;;;;;;;;;;6187283;28;20619;-73
2023/03/12 00:25:42;;;;;;;5.70;3.43;;;;;;;;;;6187777;28;20271;-73
2023/03/12 00:28:51;;;;;;;3.13;2.93;;;;;;;;;;6187421;28;20482;-73
2023/03/12 00:31:56;;;;;;;5.33;2.97;;;;;;;;;;6188001;28;20300;-73
2023/03/12 00:35:01;;;;;;;3.23;3.00;;;;;;;;;;6219325;28;20291;-74
2023/03/12 00:38:08;;;;;;;3.20;3.00;;;;;;;;;;6187558;28;20297;-74
2023/03/12 00:41:13;;;;;;;3.50;3.30;;;;;;;;;;6219330;28;20304;-74
2023/03/12 00:44:19;;;;;;;4.00;3.40;;;;;;;;;;6190311;28;20304;-74
2023/03/12 00:47:24;;;;;;;2.87;2.73;;;;;;;;;;6218041;28;20295;-73
2023/03/12 00:50:29;;;;;;;3.23;2.93;;;;;;;;;;6187381;28;20293;-74
2023/03/12 00:53:36;;;;;;;2.70;2.33;;;;;;;;;;6217794;28;20308;-74
2023/03/12 00:56:41;;;;;;;2.60;2.40;;;;;;;;;;6187228;28;20487;-74
2023/03/12 00:59:46;;;;;;;2.67;2.57;;;;;;;;;;6187062;28;20545;-73
2023/03/12 01:02:52;;;;;;;2.50;2.40;;;;;;;;;;6186798;28;20301;-72
2023/03/12 01:05:57;;;;;;;2.40;2.20;;;;;;;;;;6187059;28;20292;-74
2023/03/12 01:09:04;;;;;;;1.90;1.90;;;;;;;;;;6216940;28;20304;-74
2023/03/12 01:12:11;;;;;;;3.40;2.40;;;;;;;;;;6186330;28;20304;-73
2023/03/12 01:15:18;;;;;;;2.73;2.13;;;;;;;;;;6185692;28;20297;-73
2023/03/12 01:18:23;;;;;;;1.90;1.80;;;;;;;;;;6186518;28;20304;-73
2023/03/12 01:21:30;;;;;;;2.03;2.03;;;;;;;;;;6217726;28;20400;-73
2023/03/12 01:24:37;;;;;;;2.30;2.20;;;;;;;;;;6184859;28;20296;-75
2023/03/12 01:27:42;;;;;;;2.40;2.33;;;;;;;;;;6216832;28;20304;-74
2023/03/12 01:30:47;;;;;;;3.27;2.40;;;;;;;;;;6217745;28;20295;-74
2023/03/12 01:33:53;;;;;;;2.50;2.40;;;;;;;;;;6216816;28;20295;-73
2023/03/12 01:36:58;;;;;;;4.07;2.47;;;;;;;;;;6201342;28;20505;-73
2023/03/12 01:40:05;;;;;;;2.30;2.20;;;;;;;;;;6186052;28;20314;-74
2023/03/12 01:43:30;;;;;;;1.80;1.80;;;;;;;;;;6186139;28;20439;-74
2023/03/12 01:46:37;;;;;;;2.00;2.00;;;;;;;;;;6185459;28;20273;-73
2023/03/12 01:49:53;;;;;;;1.97;1.90;;;;;;;;;;6218528;28;20379;-75
2023/03/12 01:52:59;;;;;;;2.07;2.00;;;;;;;;;;6185801;28;20592;-74
2023/03/12 01:56:07;;;;;;;2.27;2.10;;;;;;;;;;6217412;28;20405;-74
2023/03/12 01:59:16;;;;;;;1.87;1.77;;;;;;;;;;6184208;28;20300;-73
2023/03/12 02:02:25;;;;;;;1.80;1.80;;;;;;;;;;6185930;28;20344;-73
2023/03/12 02:05:34;;;;;;;1.70;1.70;;;;;;;;;;6303677;22;20331;-74
2023/03/12 02:08:42;;;;;;;1.67;1.67;;;;;;;;;;6273313;28;20289;-74
2023/03/12 02:11:49;;;;;;;1.93;1.93;;;;;;;;;;6256936;28;20314;-74
2023/03/12 02:14:56;;;;;;;1.97;1.80;;;;;;;;;;6273214;28;20294;-75
2023/03/12 02:18:03;;;;;;;1.90;1.90;;;;;;;;;;6257814;28;20294;-73
2023/03/12 02:21:16;;;;;;;1.97;1.87;;;;;;;;;;6256586;28;20302;-75
2023/03/12 02:24:28;;;;;;;1.77;1.67;;;;;;;;;;6272778;28;20365;-73
2023/03/12 02:27:37;;;;;;;1.97;1.87;;;;;;;;;;6277318;28;20299;-75
2023/03/12 02:30:44;;;;;;;1.90;1.90;;;;;;;;;;6260842;28;20400;-74
2023/03/12 02:33:51;;;;;;;2.13;1.97;;;;;;;;;;6276988;28;20320;-74
2023/03/12 02:36:56;;;;;;;3.20;2.03;;;;;;;;;;6277370;28;20292;-74
2023/03/12 02:40:08;;;;;;;1.90;1.80;;;;;;;;;;6260570;28;20346;-74
2023/03/12 02:43:15;;;;;;;2.87;1.83;;;;;;;;;;6261942;28;20292;-74
2023/03/12 02:46:21;;;;;;;1.90;1.80;;;;;;;;;;6261695;28;20302;-74
2023/03/12 02:49:28;;;;;;;2.00;1.90;;;;;;;;;;6261833;28;20327;-74
2023/03/12 02:52:36;;;;;;;2.10;2.00;;;;;;;;;;6276548;28;20387;-72
2023/03/12 02:55:42;;;;;;;1.80;1.80;;;;;;;;;;6277305;28;20272;-74
2023/03/12 02:58:48;;;;;;;2.63;2.30;;;;;;;;;;6276706;28;20425;-74
2023/03/12 03:01:54;;;;;;;1.50;1.50;;;;;;;;;;6276409;28;20297;-73
2023/03/12 03:05:00;;;;;;;1.90;1.90;;;;;;;;;;6259365;28;20299;-73
2023/03/12 03:08:05;;;;;;;1.43;1.43;;;;;;;;;;6276239;28;20303;-75
2023/03/12 03:11:11;;;;;;;2.03;1.67;;;;;;;;;;6259310;28;20297;-74
2023/03/12 03:14:18;;;;;;;1.53;1.53;;;;;;;;;;6276095;28;20297;-74
2023/03/12 03:17:27;;;;;;;1.80;1.80;;;;;;;;;;6276785;28;20295;-75
2023/03/12 03:20:32;;;;;;;1.50;1.50;;;;;;;;;;6259728;28;20306;-74
2023/03/12 03:23:38;;;;;;;1.80;1.70;;;;;;;;;;6260764;28;20294;-75
2023/03/12 03:26:44;;;;;;;1.97;1.80;;;;;;;;;;6261284;28;20480;-75
2023/03/12 03:29:51;;;;;;;3.50;1.73;;;;;;;;;;6275994;28;20541;-75
2023/03/12 03:32:57;;;;;;;1.90;1.60;;;;;;;;;;6259741;28;20298;-75
2023/03/12 03:36:03;;;;;;;2.30;2.10;;;;;;;;;;6275681;28;20295;-74
2023/03/12 03:39:11;;;;;;;1.60;1.50;;;;;;;;;;6275033;28;20309;-74
2023/03/12 03:42:17;;;;;;;2.47;2.37;;;;;;;;;;6275788;28;20569;-74
2023/03/12 03:45:24;;;;;;;1.70;1.70;;;;;;;;;;6258831;28;20469;-75
2023/03/12 03:48:30;;;;;;;1.90;1.80;;;;;;;;;;6275388;28;20471;-74
2023/03/12 03:51:36;;;;;;;1.90;1.80;;;;;;;;;;6275771;28;20589;-75
2023/03/12 03:54:45;;;;;;;1.87;1.80;;;;;;;;;;6275830;28;20289;-75
2023/03/12 03:57:50;;;;;;;2.00;1.90;;;;;;;;;;6258966;28;20293;-74
2023/03/12 04:00:57;;;;;;;1.90;1.80;;;;;;;;;;6258743;28;20345;-74
2023/03/12 04:04:03;;;;;;;1.73;1.73;;;;;;;;;;6258243;28;20305;-74
2023/03/12 04:07:10;;;;;;;1.50;1.50;;;;;;;;;;6259844;28;20300;-75
2023/03/12 04:10:16;;;;;;;1.90;1.87;;;;;;;;;;6275218;28;20292;-74
2023/03/12 04:13:21;;;;;;;2.20;2.00;;;;;;;;;;6275162;28;20317;-75
2023/03/12 04:16:28;;;;;;;2.60;1.70;;;;;;;;;;6259129;28;20294;-74
2023/03/12 04:19:35;;;;;;;2.30;2.10;;;;;;;;;;6275037;28;20270;-74
2023/03/12 04:22:42;;;;;;;1.83;1.83;;;;;;;;;;6257384;28;20348;-74
2023/03/12 04:25:48;;;;;;;2.07;2.00;;;;;;;;;;6274329;28;20271;-74
2023/03/12 04:28:53;;;;;;;1.80;1.80;;;;;;;;;;6275082;28;20560;-75
2023/03/12 04:32:00;;;;;;;3.40;2.30;;;;;;;;;;6259477;28;20296;-74
2023/03/12 04:35:05;;;;;;;2.10;2.00;;;;;;;;;;6259077;28;20585;-74
2023/03/12 04:38:11;;;;;;;1.80;1.80;;;;;;;;;;6274602;28;20319;-75
2023/03/12 04:41:17;;;;;;;1.90;1.80;;;;;;;;;;6257722;28;20357;-74
2023/03/12 04:44:30;;;;;;;1.80;1.80;;;;;;;;;;6273986;28;20300;-74
2023/03/12 04:47:36;;;;;;;1.93;1.87;;;;;;;;;;6274529;28;20602;-74
2023/03/12 04:50:43;;;;;;;2.90;1.97;;;;;;;;;;6274520;28;20499;-75
2023/03/12 04:53:50;;;;;;;2.00;1.90;;;;;;;;;;6274225;28;20419;-75
2023/03/12 04:56:55;;;;;;;4.87;2.00;;;;;;;;;;6257831;28;20296;-74
2023/03/12 05:00:00;;;;;;;1.97;1.87;;;;;;;;;;6257926;28;20293;-73
2023/03/12 05:03:07;;;;;;;1.70;1.70;;;;;;;;;;6256961;28;20310;-76
2023/03/12 05:06:12;;;;;;;2.00;1.93;;;;;;;;;;6274380;28;20297;-75
2023/03/12 05:09:18;;;;;;;1.80;1.80;;;;;;;;;;6257168;28;20293;-74
2023/03/12 05:12:24;;;;;;;1.80;1.80;;;;;;;;;;6273404;28;20294;-72
2023/03/12 05:15:29;;;;;;;2.00;1.90;;;;;;;;;;6257832;28;20378;-72
2023/03/12 05:18:36;;;;;;;2.10;1.87;;;;;;;;;;6274315;28;20465;-72
2023/03/12 05:21:42;;;;;;;2.10;2.03;;;;;;;;;;6273766;28;20297;-74
2023/03/12 05:24:49;;;;;;;1.63;1.60;;;;;;;;;;6257047;28;20293;-74
2023/03/12 05:27:55;;;;;;;1.87;1.77;;;;;;;;;;6259273;28;20369;-73
2023/03/12 05:31:02;;;;;;;2.07;1.97;;;;;;;;;;6258030;28;20293;-74
2023/03/12 05:34:10;;;;;;;3.37;1.83;;;;;;;;;;6257389;28;20297;-73
2023/03/12 05:37:17;;;;;;;2.10;2.10;;;;;;;;;;6258150;28;20290;-72
2023/03/12 05:40:25;;;;;;;1.90;1.80;;;;;;;;;;6257300;28;20302;-74
2023/03/12 05:43:30;;;;;;;1.77;1.67;;;;;;;;;;6258833;28;20442;-73
2023/03/12 05:46:35;;;;;;;1.93;1.83;;;;;;;;;;6274749;28;20259;-74
2023/03/12 05:49:43;;;;;;;1.90;1.90;;;;;;;;;;6274220;28;20416;-74
2023/03/12 05:52:48;;;;;;;1.90;1.87;;;;;;;;;;6274538;28;20265;-73
2023/03/12 05:55:54;;;;;;;1.70;1.70;;;;;;;;;;6259048;28;20569;-73
2023/03/12 05:58:59;;;;;;;1.80;1.80;;;;;;;;;;6258427;28;20293;-72
2023/03/12 06:02:05;;;;;;;1.73;1.73;;;;;;;;;;6261271;28;20570;-72
2023/03/12 06:05:14;;;;;;;4.70;2.10;;;;;;;;;;6262546;28;20304;-73
2023/03/12 06:08:19;;;;;;;5.57;1.90;;;;;;;;;;6279150;28;20555;-74
2023/03/12 06:11:24;;;;;;;1.90;1.80;;;;;;;;;;6278532;28;20313;-73
2023/03/12 06:14:29;;;;;;;2.20;2.10;;;;;;;;;;6278411;28;20307;-73
2023/03/12 06:17:36;;;;;;;3.07;2.17;;;;;;;;;;6277992;28;20607;-73
2023/03/12 06:20:43;;;;;;;1.80;1.80;;;;;;;;;;6277922;28;20290;-74
2023/03/12 06:23:49;;;;;;;1.60;1.60;;;;;;;;;;6262296;28;20302;-74
2023/03/12 06:26:59;;;;;;;1.50;1.50;;;;;;;;;;6262296;28;20294;-73
2023/03/12 06:30:04;;;;;;;1.50;1.50;;;;;;;;;;6263105;28;20294;-72
2023/03/12 06:33:13;;;;;;;1.70;1.60;;;;;;;;;;6262624;28;20302;-74
2023/03/12 06:36:21;;;;;;;1.47;1.37;;;;;;;;;;6262668;28;20294;-73
2023/03/12 06:39:28;;;;;;;1.47;1.47;;;;;;;;;;6278023;28;20342;-73
2023/03/12 06:42:34;;;;;;;1.60;1.60;;;;;;;;;;6261519;28;20294;-74
2023/03/12 06:45:39;;;;;;;1.53;1.43;;;;;;;;;;6262179;28;20307;-72
2023/03/12 06:48:45;;;;;;;1.40;1.40;;;;;;;;;;6262259;28;20289;-74
2023/03/12 06:51:52;;;;;;;1.50;1.50;;;;;;;;;;6262696;28;20290;-73
2023/03/12 06:54:57;;;;;;;1.20;1.20;;;;;;;;;;6262333;28;20318;-73
2023/03/12 06:58:02;;;;;;;1.50;1.40;;;;;;;;;;6262360;28;20307;-73
2023/03/12 07:01:08;;;;;;;1.37;1.37;;;;;;;;;;6277870;28;20318;-73
2023/03/12 07:04:14;;;;;;;1.30;1.30;;;;;;;;;;6261825;28;20314;-73
2023/03/12 07:07:20;;;;;;;2.03;1.30;;;;;;;;;;6262877;28;20306;-73
2023/03/12 07:10:26;;;;;;;1.37;1.37;;;;;;;;;;6262952;28;20296;-73
2023/03/12 07:13:32;;;;;;;1.33;1.33;;;;;;;;;;6237061;28;20395;-73
2023/03/12 07:16:38;;;;;;;1.60;1.50;;;;;;;;;;6277096;28;20269;-72
2023/03/12 07:19:43;;;;;;;1.57;1.57;;;;;;;;;;6261400;28;20284;-74
2023/03/12 07:22:55;;;;;;;1.40;1.40;;;;;;;;;;6261801;28;20287;-74
2023/03/12 07:26:00;;;;;;;1.50;1.40;;;;;;;;;;6260918;28;20304;-73
2023/03/12 07:29:06;;;;;;;1.30;1.30;;;;;;;;;;6261810;28;20291;-73
2023/03/12 07:32:13;;;;;;;1.30;1.30;;;;;;;;;;6261948;28;20433;-73
2023/03/12 07:35:19;;;;;;;1.50;1.50;;;;;;;;;;6261645;28;20296;-74
2023/03/12 07:38:25;;;;;;;1.57;1.40;;;;;;;;;;6261284;28;20590;-72
2023/03/12 07:41:31;;;;;;;1.30;1.30;;;;;;;;;;6260999;28;20377;-73
2023/03/12 07:44:36;;;;;;;1.40;1.30;;;;;;;;;;6261423;28;20327;-73
2023/03/12 07:47:41;;;;;;;1.37;1.37;;;;;;;;;;6261028;28;20406;-72
2023/03/12 07:50:47;;;;;;;1.37;1.37;;;;;;;;;;6261190;28;20297;-73
2023/03/12 07:53:54;;;;;;;1.27;1.27;;;;;;;;;;6260825;28;20310;-75
2023/03/12 07:56:59;;;;;;;1.40;1.40;;;;;;;;;;6260588;28;20360;-74
2023/03/12 08:00:09;;;;;;;1.40;1.40;;;;;;;;;;6260838;28;20297;-74
2023/03/12 08:03:17;;;;;;;1.30;1.30;;;;;;;;;;6260431;28;20508;-74
2023/03/12 08:06:23;;;;;;;1.40;1.40;;;;;;;;;;6260531;28;20290;-74
2023/03/12 08:09:30;;;;;;;1.30;1.30;;;;;;;;;;6260734;28;20615;-74
2023/03/12 08:12:37;;;;;;;1.20;1.20;;;;;;;;;;6259562;28;20285;-72
2023/03/12 08:15:42;;;;;;;1.20;1.20;;;;;;;;;;6260158;28;20292;-73
2023/03/12 08:18:47;;;;;;;1.30;1.20;;;;;;;;;;6275871;28;20288;-74
2023/03/12 08:21:52;;;;;;;1.20;1.13;;;;;;;;;;6260113;28;20293;-73
2023/03/12 08:24:59;;;;;;;1.10;1.10;;;;;;;;;;6258939;28;20301;-74
2023/03/12 08:28:04;;;;;;;1.47;1.27;;;;;;;;;;6260010;28;20564;-74
2023/03/12 08:31:10;;;;;;;2.30;1.20;;;;;;;;;;6259470;28;20297;-73
2023/03/12 08:34:16;;;;;;;1.03;1.03;;;;;;;;;;6260321;28;20294;-74
2023/03/12 08:37:22;;;;;;;1.17;1.17;;;;;;;;;;6259701;28;20286;-73
2023/03/12 08:40:28;;;;;;;1.10;1.10;;;;;;;;;;6259804;28;20577;-72
2023/03/12 08:43:33;;;;;;;1.30;1.30;;;;;;;;;;6258056;28;20273;-73
2023/03/12 08:46:39;;;;;;;18.00;8.23;;;;;;;;;;6258953;28;20264;-73
2023/03/12 08:49:44;;;;;;;2.80;2.60;;;;;;;;;;6275112;28;20354;-73
2023/03/12 08:52:49;;;;;;;0.93;0.93;;;;;;;;;;6258546;28;20439;-73
2023/03/12 08:55:56;;;;;;;1.27;1.23;;;;;;;;;;6259271;28;20297;-73
2023/03/12 08:59:01;;;;;;;1.20;1.20;;;;;;;;;;6259021;28;20304;-73
2023/03/12 09:02:07;;;;;;;1.03;1.03;;;;;;;;;;6259547;28;20289;-73
2023/03/12 09:05:13;;;;;;;5.20;4.80;;;;;;;;;;6258979;28;20305;-73
2023/03/12 09:08:19;;;;;;;3.17;3.00;;;;;;;;;;6259156;28;20424;-72
2023/03/12 09:11:25;;;;;;;1.67;1.60;;;;;;;;;;6259643;28;20309;-73
2023/03/12 09:14:30;;;;;;;1.20;1.20;;;;;;;;;;6259896;28;20295;-72
2023/03/12 09:17:55;;;;;;;1.20;1.20;;;;;;;;;;6259611;28;20290;-73
2023/03/12 09:21:01;;;;;;;1.00;1.00;;;;;;;;;;6259663;28;20455;-73
2023/03/12 09:24:07;;;;;;;1.13;1.13;;;;;;;;;;6259301;28;20301;-73
2023/03/12 09:27:13;;;;;;;1.40;1.30;;;;;;;;;;6259104;28;20308;-73
2023/03/12 09:30:21;;;;;;;1.60;1.60;;;;;;;;;;6259179;28;20388;-73
2023/03/12 09:33:26;;;;;;;2.33;1.93;;;;;;;;;;6259473;28;20294;-73
2023/03/12 09:36:32;;;;;;;1.30;1.20;;;;;;;;;;6262571;28;20293;-73
2023/03/12 09:39:37;;;;;;;1.30;1.30;;;;;;;;;;6264222;28;20287;-72
2023/03/12 09:42:47;;;;;;;1.23;1.23;;;;;;;;;;6265149;28;20364;-72
2023/03/12 09:45:52;;;;;;;1.10;1.10;;;;;;;;;;6263596;28;20297;-73
2023/03/12 09:48:59;;;;;;;1.23;0.97;;;;;;;;;;6264228;28;20297;-73
2023/03/12 09:52:11;;;;;;;1.40;1.40;;;;;;;;;;6264526;28;20296;-72
2023/03/12 09:55:18;;;;;;;1.60;1.60;;;;;;;;;;6264034;28;20308;-74
2023/03/12 09:58:27;;;;;;;2.90;1.03;;;;;;;;;;6264654;28;20301;-74
2023/03/12 10:01:47;;;;;;;1.40;1.40;;;;;;;;;;6237998;28;20285;-73
2023/03/12 10:04:56;;;;;;;1.63;1.53;;;;;;;;;;6238704;28;20295;-74
2023/03/12 10:08:07;;;;;;;2.27;1.70;;;;;;;;;;6243438;28;20298;-73
2023/03/12 10:11:39;;;;;;;1.27;1.27;;;;;;;;;;6263718;28;20555;-72
2023/03/12 10:14:57;;;;;;;1.03;1.03;;;;;;;;;;6263555;28;20594;-71
2023/03/12 10:18:12;;;;;;;1.10;1.10;;;;;;;;;;6262383;28;20298;-73
2023/03/12 10:21:22;;;;;;;1.10;1.10;;;;;;;;;;6278458;28;20301;-74
2023/03/12 10:24:47;;;;;;;1.07;1.07;;;;;;;;;;6263206;28;20293;-73
2023/03/12 10:27:52;;;;;;;0.93;0.93;;;;;;;;;;6263192;28;20286;-73
2023/03/12 10:31:01;;;;;;;1.40;1.40;;;;;;;;;;6263157;28;20396;-73
2023/03/12 10:34:15;;;;;;;1.90;1.30;;;;;;;;;;6262790;28;20298;-72
2023/03/12 10:37:24;;;;;;;1.13;1.13;;;;;;;;;;6263142;28;20298;-73
2023/03/12 10:40:32;;;;;;;1.17;1.17;;;;;;;;;;6263123;28;20295;-72
2023/03/12 10:43:38;;;;;;;0.90;0.90;;;;;;;;;;6261835;28;20292;-72
2023/03/12 10:47:18;;;;;;;0.90;0.90;;;;;;;;;;6260450;28;20287;-73
2023/03/12 10:50:24;;;;;;;1.00;1.00;;;;;;;;;;6259764;28;20305;-72
2023/03/12 10:53:31;;;;;;;1.07;1.07;;;;;;;;;;6262816;28;20302;-73
2023/03/12 10:56:49;;;;;;;1.40;0.93;;;;;;;;;;6262480;28;20298;-73
2023/03/12 11:00:07;;;;;;;0.90;0.90;;;;;;;;;;6262638;28;20298;-73
2023/03/12 11:03:21;;;;;;;1.20;1.10;;;;;;;;;;6262108;28;20312;-73
2023/03/12 11:06:29;;;;;;;1.37;1.07;;;;;;;;;;6262378;28;20330;-74
2023/03/12 11:09:34;;;;;;;1.00;1.00;;;;;;;;;;6262556;28;20291;-74
2023/03/12 11:12:41;;;;;;;0.90;0.90;;;;;;;;;;6261251;28;20319;-73
2023/03/12 11:15:46;;;;;;;1.10;1.10;;;;;;;;;;6261006;28;20457;-73
2023/03/12 11:18:58;;;;;;;0.77;0.77;;;;;;;;;;6262672;28;20430;-74
2023/03/12 11:22:06;;;;;;;0.83;0.83;;;;;;;;;;6277792;28;20470;-73
2023/03/12 11:25:22;;;;;;;1.20;1.10;;;;;;;;;;6261519;28;20297;-74
2023/03/12 11:28:35;;;;;;;2.87;0.90;;;;;;;;;;6262118;28;20317;-73
2023/03/12 11:31:43;;;;;;;1.30;1.30;;;;;;;;;;6261019;28;20275;-74
2023/03/12 11:34:56;;;;;;;1.80;1.10;;;;;;;;;;6261590;28;20302;-73
2023/03/12 11:38:18;;;;;;;1.70;0.80;;;;;;;;;;6261747;28;20292;-72
2023/03/12 11:41:38;;;;;;;1.20;1.20;;;;;;;;;;6261357;28;20293;-73
2023/03/12 11:44:55;;;;;;;0.90;0.90;;;;;;;;;;6260231;28;20322;-74
2023/03/12 11:48:07;;;;;;;2.53;0.80;;;;;;;;;;6261153;28;20310;-72
2023/03/12 11:51:26;;;;;;;1.40;0.80;;;;;;;;;;6261146;28;20287;-73
2023/03/12 11:55:03;;;;;;;0.87;0.60;;;;;;;;;;6259789;28;20298;-72
2023/03/12 11:58:28;;;;;;;1.80;0.80;;;;;;;;;;6275972;28;20432;-72
2023/03/12 12:01:41;;;;;;;0.80;0.80;;;;;;;;;;6259481;28;20453;-72
2023/03/12 12:05:10;;;;;;;0.90;0.90;;;;;;;;;;6261185;28;20294;-73
2023/03/12 12:08:38;;;;;;;1.70;1.70;;;;;;;;;;6276538;28;20548;-73
2023/03/12 12:11:51;;;;;;;1.00;1.00;;;;;;;;;;6260891;28;20424;-73
2023/03/12 12:15:06;;;;;;;1.13;1.13;;;;;;;;;;6261076;28;20298;-71
2023/03/12 12:18:42;;;;;;;0.90;0.90;;;;;;;;;;6260325;28;20374;-74
2023/03/12 12:22:01;;;;;;;0.70;0.70;;;;;;;;;;6259839;28;20701;-74
2023/03/12 12:25:37;;;;;;;0.70;0.70;;;;;;;;;;6261002;28;20287;-74
2023/03/12 12:29:07;;;;;;;0.70;0.70;;;;;;;;;;6248389;28;20303;-73
2023/03/12 12:32:19;;;;;;;0.90;0.90;;;;;;;;;;6253601;28;20347;-74
2023/03/12 12:35:29;;;;;;;0.80;0.80;;;;;;;;;;6258317;28;20295;-73
2023/03/12 12:38:37;;;;;;;1.00;1.00;;;;;;;;;;6258416;28;20298;-73
2023/03/12 12:41:46;;;;;;;2.00;0.70;;;;;;;;;;6275101;28;20304;-73
2023/03/12 12:44:53;;;;;;;2.53;0.80;;;;;;;;;;6260193;28;20307;-72
2023/03/12 12:48:02;;;;;;;0.80;0.80;;;;;;;;;;6260810;28;20307;-75
2023/03/12 12:51:09;;;;;;;1.00;1.00;;;;;;;;;;6261243;28;20298;-74
2023/03/12 12:54:21;;;;;;;0.83;0.83;;;;;;;;;;6260238;28;20402;-74
2023/03/12 12:57:33;;;;;;;0.70;0.70;;;;;;;;;;6259879;28;20307;-74
2023/03/12 13:00:46;;;;;;;0.80;0.80;;;;;;;;;;6260497;28;20300;-74
2023/03/12 13:03:52;;;;;;;0.90;0.90;;;;;;;;;;6259403;28;20315;-73
2023/03/12 13:07:01;;;;;;;0.83;0.83;;;;;;;;;;6260030;28;20556;-75
2023/03/12 13:10:09;;;;;;;0.60;0.60;;;;;;;;;;6259804;28;20446;-73
2023/03/12 13:13:21;;;;;;;2.37;0.90;;;;;;;;;;6259657;28;20292;-74
2023/03/12 13:16:33;;;;;;;0.87;0.87;;;;;;;;;;6259626;28;20301;-74
2023/03/12 13:19:41;;;;;;;0.80;0.80;;;;;;;;;;6259263;28;20276;-75
2023/03/12 13:23:14;;;;;;;0.90;0.90;;;;;;;;;;6260062;28;20291;-76
2023/03/12 13:26:23;;;;;;;0.77;0.77;;;;;;;;;;6259261;28;20303;-74
2023/03/12 13:29:42;;;;;;;0.77;0.77;;;;;;;;;;6275755;28;20288;-74
2023/03/12 13:33:11;;;;;;;1.00;1.00;;;;;;;;;;6257906;28;20528;-76
2023/03/12 13:36:24;;;;;;;0.60;0.60;;;;;;;;;;6258719;28;20419;-75
2023/03/12 13:39:32;;;;;;;1.43;0.93;;;;;;;;;;6259103;28;20438;-75
2023/03/12 13:42:40;;;;;;;3.20;0.80;;;;;;;;;;6259348;28;20290;-76
2023/03/12 13:46:08;;;;;;;0.80;0.80;;;;;;;;;;6258792;28;20303;-75
2023/03/12 13:49:20;;;;;;;0.80;0.80;;;;;;;;;;6266958;28;20296;-77
2023/03/12 13:52:27;;;;;;;2.13;0.80;;;;;;;;;;6255904;28;20296;-75
2023/03/12 13:55:34;;;;;;;1.00;0.77;;;;;;;;;;6256441;28;20272;-75
2023/03/12 13:58:44;;;;;;;0.80;0.73;;;;;;;;;;6259540;28;20276;-74
2023/03/12 14:01:55;;;;;;;0.70;0.70;;;;;;;;;;6259323;28;20325;-76
2023/03/12 14:05:06;;;;;;;0.80;0.80;;;;;;;;;;6259106;28;20311;-74
2023/03/12 14:08:32;;;;;;;0.90;0.90;;;;;;;;;;6259678;28;20296;-74
2023/03/12 14:11:45;;;;;;;3.67;1.17;;;;;;;;;;6260177;28;20301;-73
2023/03/12 14:15:12;;;;;;;1.03;1.03;;;;;;;;;;6258188;28;20305;-74
2023/03/12 14:18:23;;;;;;;0.80;0.80;;;;;;;;;;6259340;28;20392;-74
2023/03/12 14:21:32;;;;;;;1.80;1.00;;;;;;;;;;6259873;28;20288;-74
2023/03/12 14:24:40;;;;;;;0.80;0.80;;;;;;;;;;6261642;28;20356;-74
2023/03/12 14:27:47;;;;;;;1.30;0.90;;;;;;;;;;6263275;28;20303;-73
2023/03/12 14:30:58;;;;;;;1.00;1.00;;;;;;;;;;6262684;28;20319;-75
2023/03/12 14:34:08;;;;;;;0.80;0.80;;;;;;;;;;6262692;28;20345;-73
2023/03/12 14:37:16;;;;;;;1.90;0.83;;;;;;;;;;6263454;28;20287;-73
2023/03/12 14:40:24;;;;;;;0.90;0.90;;;;;;;;;;6263859;28;20288;-73
2023/03/12 14:43:32;;;;;;;0.83;0.83;;;;;;;;;;6277803;28;20592;-74
2023/03/12 14:46:39;;;;;;;0.80;0.80;;;;;;;;;;6252258;28;20282;-75
2023/03/12 14:49:47;;;;;;;0.80;0.80;;;;;;;;;;6238199;28;20289;-74
2023/03/12 14:52:52;;;;;;;0.83;0.80;;;;;;;;;;6239370;28;20392;-73
2023/03/12 14:56:03;;;;;;;0.90;0.90;;;;;;;;;;6237407;28;20300;-73
2023/03/12 14:59:26;;;;;;;1.17;1.17;;;;;;;;;;6238423;28;20309;-75
2023/03/12 15:02:32;;;;;;;1.13;0.93;;;;;;;;;;6237693;28;20296;-74
2023/03/12 15:05:39;;;;;;;0.80;0.80;;;;;;;;;;6236057;28;20308;-75
2023/03/12 15:08:44;;;;;;;1.77;1.00;;;;;;;;;;6237840;28;20530;-74
2023/03/12 15:11:54;;;;;;;0.80;0.80;;;;;;;;;;6238187;28;20302;-73
2023/03/12 15:15:04;;;;;;;0.90;0.90;;;;;;;;;;6236988;28;20296;-73
2023/03/12 15:18:16;;;;;;;2.80;0.90;;;;;;;;;;6237767;28;20307;-72
2023/03/12 15:21:22;;;;;;;1.60;1.13;;;;;;;;;;6237803;28;20297;-72
2023/03/12 15:24:39;;;;;;;1.07;0.97;;;;;;;;;;6236228;28;20292;-73
2023/03/12 15:27:44;;;;;;;1.40;1.00;;;;;;;;;;6237619;28;20368;-73
2023/03/12 15:31:06;;;;;;;1.17;1.13;;;;;;;;;;6236545;28;20541;-76
2023/03/12 15:34:27;;;;;;;0.80;0.80;;;;;;;;;;6237432;28;20616;-76
2023/03/12 15:37:36;;;;;;;1.40;0.82;;;;;;;;;;6260174;28;20517;-72
2023/03/12 15:40:42;;;;;;;0.90;0.90;;;;;;;;;;6260684;28;20500;-73
2023/03/12 15:43:51;;;;;;;1.50;0.90;;;;;;;;;;6260768;28;20539;-73
2023/03/12 15:47:02;;;;;;;0.93;0.93;;;;;;;;;;6260817;28;20477;-73
2023/03/12 15:50:17;;;;;;;0.90;0.90;;;;;;;;;;6261235;28;20555;-75
2023/03/12 15:53:29;;;;;;;1.10;1.10;;;;;;;;;;6262135;28;20325;-74
2023/03/12 15:56:36;;;;;;;1.60;0.90;;;;;;;;;;6261795;28;20293;-75
2023/03/12 15:59:41;;;;;;;1.20;1.07;;;;;;;;;;6262911;28;20472;-73
2023/03/12 16:02:52;;;;;;;3.53;1.07;;;;;;;;;;6261019;28;20291;-74
2023/03/12 16:05:57;;;;;;;0.90;0.90;;;;;;;;;;6261260;28;20300;-74
2023/03/12 16:09:04;;;;;;;0.80;0.80;;;;;;;;;;6261123;28;20320;-74
2023/03/12 16:12:11;;;;;;;0.90;0.90;;;;;;;;;;6260916;28;20299;-74
2023/03/12 16:15:19;;;;;;;1.00;1.00;;;;;;;;;;6260667;28;20298;-74
2023/03/12 16:18:24;;;;;;;0.93;0.93;;;;;;;;;;6259358;28;20297;-74
2023/03/12 16:21:30;;;;;;;1.00;1.00;;;;;;;;;;6259992;28;20299;-73
2023/03/12 16:24:36;;;;;;;0.90;0.90;;;;;;;;;;6260066;28;20311;-74
2023/03/12 16:27:49;;;;;;;1.20;1.10;;;;;;;;;;6261475;28;20381;-73
2023/03/12 16:30:54;;;;;;;1.10;1.10;;;;;;;;;;6261165;28;20307;-74
2023/03/12 16:34:01;;;;;;;0.97;0.93;;;;;;;;;;6261023;28;20456;-74
2023/03/12 16:37:06;;;;;;;1.23;1.23;;;;;;;;;;6261301;28;20290;-73
2023/03/12 16:40:16;;;;;;;0.87;0.87;;;;;;;;;;6260482;28;20319;-73
2023/03/12 16:43:37;;;;;;;1.50;0.73;;;;;;;;;;6258940;28;20511;-75
2023/03/12 16:46:43;;;;;;;1.10;1.10;;;;;;;;;;6259511;28;20267;-74
2023/03/12 16:49:48;;;;;;;1.00;1.00;;;;;;;;;;6259365;28;20290;-74
2023/03/12 16:52:53;;;;;;;0.87;0.87;;;;;;;;;;6259603;28;20290;-77
2023/03/12 16:56:01;;;;;;;0.80;0.80;;;;;;;;;;6259464;28;20314;-73
2023/03/12 16:59:08;;;;;;;1.37;0.93;;;;;;;;;;6260479;28;20291;-73
2023/03/12 17:02:16;;;;;;;1.00;1.00;;;;;;;;;;6260285;28;20535;-73
2023/03/12 17:05:22;;;;;;;0.83;0.83;;;;;;;;;;6259486;28;20307;-74
2023/03/12 17:08:27;;;;;;;4.20;0.93;;;;;;;;;;6259899;28;20288;-74
2023/03/12 17:11:34;;;;;;;0.90;0.90;;;;;;;;;;6260327;28;20299;-73
2023/03/12 17:14:39;;;;;;;2.93;1.20;;;;;;;;;;6258726;28;20294;-74
2023/03/12 17:17:45;;;;;;;2.00;1.30;;;;;;;;;;6260057;28;20299;-73
2023/03/12 17:20:50;;;;;;;1.00;1.00;;;;;;;;;;6258344;28;20293;-73
2023/03/12 17:23:56;;;;;;;1.00;1.00;;;;;;;;;;6259338;28;20303;-76
2023/03/12 17:27:02;;;;;;;1.20;1.10;;;;;;;;;;6259613;28;20310;-73
2023/03/12 17:30:09;;;;;;;2.83;0.93;;;;;;;;;;6259210;28;20302;-73
2023/03/12 17:33:16;;;;;;;1.27;0.90;;;;;;;;;;6245855;28;20380;-73
2023/03/12 17:36:21;;;;;;;2.53;1.00;;;;;;;;;;6249276;28;20295;-73
2023/03/12 17:39:26;;;;;;;1.43;1.10;;;;;;;;;;6256223;28;20302;-74
2023/03/12 17:42:33;;;;;;;1.00;1.00;;;;;;;;;;6254737;28;20301;-73
2023/03/12 17:45:39;;;;;;;1.07;0.97;;;;;;;;;;6258895;28;20303;-73
2023/03/12 17:48:44;;;;;;;1.00;1.00;;;;;;;;;;6259733;28;20598;-72
2023/03/12 17:51:49;;;;;;;1.07;1.07;;;;;;;;;;6287941;22;20326;-74
2023/03/12 17:54:54;;;;;;;1.13;1.13;;;;;;;;;;6235222;28;20296;-75
2023/03/12 17:58:02;;;;;;;1.43;1.40;;;;;;;;;;6238858;28;20291;-74
2023/03/12 18:01:08;;;;;;;1.07;1.07;;;;;;;;;;6240859;28;20294;-73
2023/03/12 18:04:14;;;;;;;1.00;1.00;;;;;;;;;;6240243;28;20308;-75
2023/03/12 18:07:19;;;;;;;2.53;1.20;;;;;;;;;;6744921;22;20243;-75
2023/03/12 18:10:24;;;;;;;1.23;0.93;;;;;;;;;;6256220;28;20305;-74
2023/03/12 18:13:31;;;;;;;0.90;0.90;;;;;;;;;;6264185;28;20580;-74
2023/03/12 18:16:36;;;;;;;0.90;0.90;;;;;;;;;;6254407;28;20402;-74
2023/03/12 18:19:41;;;;;;;1.00;1.00;;;;;;;;;;6263887;28;20302;-74
2023/03/12 18:22:47;;;;;;;1.00;0.90;;;;;;;;;;6259966;28;20275;-74
2023/03/12 18:25:52;;;;;;;0.90;0.90;;;;;;;;;;6233634;28;20512;-73
2023/03/12 18:29:00;;;;;;;0.83;0.83;;;;;;;;;;6238735;28;20299;-74
2023/03/12 18:32:05;;;;;;;2.30;0.90;;;;;;;;;;6222592;28;20302;-73
2023/03/12 18:35:11;;;;;;;1.00;1.00;;;;;;;;;;6241375;28;20607;-74
2023/03/12 18:38:16;;;;;;;1.00;1.00;;;;;;;;;;6239322;28;20290;-75
2023/03/12 18:41:27;;;;;;;1.53;1.30;;;;;;;;;;6232531;28;20304;-75
2023/03/12 18:44:35;;;;;;;1.00;1.00;;;;;;;;;;6213129;28;20304;-73
2023/03/12 18:47:43;;;;;;;1.00;1.00;;;;;;;;;;6214870;28;20306;-74
2023/03/12 18:50:49;;;;;;;1.40;1.00;;;;;;;;;;6212657;28;20326;-74